sensor_id;sensor_type;location;lat;lon;timestamp;P1;durP1;ratioP1;P2;durP2;ratioP2
66603;SDS011;53460;39.612;8.822;2022-11-15T00:01:33;2.20;;;1.50;;
66603;SDS011;53460;39.612;8.822;2022-11-15T00:04:17;2.00;;;1.90;;
66603;SDS011;53460;39.612;8.822;2022-11-15T00:07:01;2.40;;;1.70;;
66603;SDS011;53460;39.612;8.822;2022-11-15T00:09:45;3.03;;;1.95;;
66603;SDS011;53460;39.612;8.822;2022-11-15T00:12:29;3.55;;;1.85;;
66603;SDS011;53460;39.612;8.822;2022-11-15T00:15:13;4.18;;;2.00;;
66603;SDS011;53460;39.612;8.822;2022-11-15T00:17:57;2.72;;;2.00;;
66603;SDS011;53460;39.612;8.822;2022-11-15T00:20:41;2.22;;;2.00;;
66603;SDS011;53460;39.612;8.822;2022-11-15T00:23:26;4.20;;;2.00;;
66603;SDS011;53460;39.612;8.822;2022-11-15T00:26:11;2.38;;;1.90;;
66603;SDS011;53460;39.612;8.822;2022-11-15T00:28:56;2.53;;;1.70;;
66603;SDS011;53460;39.612;8.822;2022-11-15T00:31:40;2.97;;;1.90;;
66603;SDS011;53460;39.612;8.822;2022-11-15T00:34:24;2.85;;;1.98;;
66603;SDS011;53460;39.612;8.822;2022-11-15T00:37:07;4.00;;;2.22;;
66603;SDS011;53460;39.612;8.822;2022-11-15T00:39:51;5.43;;;1.75;;
66603;SDS011;53460;39.612;8.822;2022-11-15T00:42:35;3.38;;;1.70;;
66603;SDS011;53460;39.612;8.822;2022-11-15T00:45:19;1.63;;;1.38;;
66603;SDS011;53460;39.612;8.822;2022-11-15T00:48:03;1.55;;;1.40;;
66603;SDS011;53460;39.612;8.822;2022-11-15T00:50:47;1.77;;;1.27;;
66603;SDS011;53460;39.612;8.822;2022-11-15T00:53:32;2.85;;;1.40;;
66603;SDS011;53460;39.612;8.822;2022-11-15T00:56:15;2.75;;;1.38;;
66603;SDS011;53460;39.612;8.822;2022-11-15T00:58:59;2.75;;;1.15;;
66603;SDS011;53460;39.612;8.822;2022-11-15T01:01:43;2.28;;;1.17;;
66603;SDS011;53460;39.612;8.822;2022-11-15T01:04:27;1.63;;;1.30;;
66603;SDS011;53460;39.612;8.822;2022-11-15T01:07:11;2.13;;;1.30;;
66603;SDS011;53460;39.612;8.822;2022-11-15T01:09:56;1.98;;;1.17;;
66603;SDS011;53460;39.612;8.822;2022-11-15T01:12:40;1.48;;;1.13;;
66603;SDS011;53460;39.612;8.822;2022-11-15T01:15:24;2.22;;;1.02;;
66603;SDS011;53460;39.612;8.822;2022-11-15T01:18:08;3.47;;;1.38;;
66603;SDS011;53460;39.612;8.822;2022-11-15T01:20:52;2.70;;;1.50;;
66603;SDS011;53460;39.612;8.822;2022-11-15T01:23:36;1.80;;;1.27;;
66603;SDS011;53460;39.612;8.822;2022-11-15T01:26:20;1.52;;;1.10;;
66603;SDS011;53460;39.612;8.822;2022-11-15T01:29:05;1.55;;;1.27;;
66603;SDS011;53460;39.612;8.822;2022-11-15T01:31:48;3.53;;;1.23;;
66603;SDS011;53460;39.612;8.822;2022-11-15T01:34:33;2.20;;;1.35;;
66603;SDS011;53460;39.612;8.822;2022-11-15T01:37:17;2.33;;;1.60;;
66603;SDS011;53460;39.612;8.822;2022-11-15T01:40:01;1.45;;;1.30;;
66603;SDS011;53460;39.612;8.822;2022-11-15T01:42:45;0.93;;;0.90;;
66603;SDS011;53460;39.612;8.822;2022-11-15T01:45:29;1.77;;;1.20;;
66603;SDS011;53460;39.612;8.822;2022-11-15T01:48:13;2.85;;;1.30;;
66603;SDS011;53460;39.612;8.822;2022-11-15T01:50:57;1.40;;;1.30;;
66603;SDS011;53460;39.612;8.822;2022-11-15T01:53:42;2.85;;;1.40;;
66603;SDS011;53460;39.612;8.822;2022-11-15T01:56:28;3.55;;;1.20;;
66603;SDS011;53460;39.612;8.822;2022-11-15T01:59:13;3.10;;;1.30;;
66603;SDS011;53460;39.612;8.822;2022-11-15T02:01:58;1.52;;;1.10;;
66603;SDS011;53460;39.612;8.822;2022-11-15T02:04:43;2.50;;;0.90;;
66603;SDS011;53460;39.612;8.822;2022-11-15T02:07:27;1.55;;;1.00;;
66603;SDS011;53460;39.612;8.822;2022-11-15T02:10:14;0.95;;;0.93;;
66603;SDS011;53460;39.612;8.822;2022-11-15T02:12:58;1.00;;;0.90;;
66603;SDS011;53460;39.612;8.822;2022-11-15T02:19:05;1.70;;;1.08;;
66603;SDS011;53460;39.612;8.822;2022-11-15T02:42:07;1.65;;;1.50;;
66603;SDS011;53460;39.612;8.822;2022-11-15T02:45:13;2.10;;;0.90;;
66603;SDS011;53460;39.612;8.822;2022-11-15T02:48:00;1.35;;;1.00;;
66603;SDS011;53460;39.612;8.822;2022-11-15T02:50:45;1.00;;;1.00;;
66603;SDS011;53460;39.612;8.822;2022-11-15T02:53:29;0.90;;;0.90;;
66603;SDS011;53460;39.612;8.822;2022-11-15T02:56:13;0.90;;;0.90;;
66603;SDS011;53460;39.612;8.822;2022-11-15T03:04:44;1.95;;;1.55;;
66603;SDS011;53460;39.612;8.822;2022-11-15T03:07:32;1.40;;;1.10;;
66603;SDS011;53460;39.612;8.822;2022-11-15T03:15:59;1.33;;;0.93;;
66603;SDS011;53460;39.612;8.822;2022-11-15T03:18:47;1.83;;;1.23;;
66603;SDS011;53460;39.612;8.822;2022-11-15T03:21:34;2.78;;;1.15;;
66603;SDS011;53460;39.612;8.822;2022-11-15T03:24:19;1.83;;;0.93;;
66603;SDS011;53460;39.612;8.822;2022-11-15T03:27:05;1.00;;;0.93;;
66603;SDS011;53460;39.612;8.822;2022-11-15T03:29:52;1.55;;;1.00;;
66603;SDS011;53460;39.612;8.822;2022-11-15T03:32:42;1.52;;;1.10;;
66603;SDS011;53460;39.612;8.822;2022-11-15T03:35:28;1.17;;;0.90;;
66603;SDS011;53460;39.612;8.822;2022-11-15T03:40:59;2.33;;;0.95;;
66603;SDS011;53460;39.612;8.822;2022-11-15T03:43:52;4.40;;;1.25;;
66603;SDS011;53460;39.612;8.822;2022-11-15T03:46:40;1.58;;;1.20;;
66603;SDS011;53460;39.612;8.822;2022-11-15T03:49:33;1.55;;;1.10;;
66603;SDS011;53460;39.612;8.822;2022-11-15T03:52:21;1.95;;;1.00;;
66603;SDS011;53460;39.612;8.822;2022-11-15T03:55:06;2.17;;;1.08;;
66603;SDS011;53460;39.612;8.822;2022-11-15T03:57:51;1.67;;;1.02;;
66603;SDS011;53460;39.612;8.822;2022-11-15T04:00:37;1.85;;;0.90;;
66603;SDS011;53460;39.612;8.822;2022-11-15T04:03:21;1.10;;;1.00;;
66603;SDS011;53460;39.612;8.822;2022-11-15T04:06:05;3.10;;;1.08;;
66603;SDS011;53460;39.612;8.822;2022-11-15T04:08:49;2.05;;;1.23;;
66603;SDS011;53460;39.612;8.822;2022-11-15T04:11:33;1.40;;;1.00;;
66603;SDS011;53460;39.612;8.822;2022-11-15T04:14:17;1.00;;;0.90;;
66603;SDS011;53460;39.612;8.822;2022-11-15T04:17:01;0.80;;;0.80;;
66603;SDS011;53460;39.612;8.822;2022-11-15T04:19:45;1.15;;;0.90;;
66603;SDS011;53460;39.612;8.822;2022-11-15T04:22:48;1.27;;;1.17;;
66603;SDS011;53460;39.612;8.822;2022-11-15T04:25:52;2.28;;;0.90;;
66603;SDS011;53460;39.612;8.822;2022-11-15T04:28:36;1.63;;;0.98;;
66603;SDS011;53460;39.612;8.822;2022-11-15T04:31:43;2.88;;;1.00;;
66603;SDS011;53460;39.612;8.822;2022-11-15T04:34:27;2.00;;;0.90;;
66603;SDS011;53460;39.612;8.822;2022-11-15T04:37:11;1.60;;;1.00;;
66603;SDS011;53460;39.612;8.822;2022-11-15T04:39:59;2.33;;;0.77;;
66603;SDS011;53460;39.612;8.822;2022-11-15T04:42:44;1.48;;;0.85;;
66603;SDS011;53460;39.612;8.822;2022-11-15T04:45:28;0.80;;;0.80;;
66603;SDS011;53460;39.612;8.822;2022-11-15T04:48:12;1.77;;;1.00;;
66603;SDS011;53460;39.612;8.822;2022-11-15T04:50:56;3.33;;;1.02;;
66603;SDS011;53460;39.612;8.822;2022-11-15T04:53:40;1.00;;;0.90;;
66603;SDS011;53460;39.612;8.822;2022-11-15T04:56:24;5.10;;;1.10;;
66603;SDS011;53460;39.612;8.822;2022-11-15T04:59:08;2.28;;;1.20;;
66603;SDS011;53460;39.612;8.822;2022-11-15T05:01:52;2.28;;;1.17;;
66603;SDS011;53460;39.612;8.822;2022-11-15T05:04:36;2.30;;;0.82;;
66603;SDS011;53460;39.612;8.822;2022-11-15T05:07:20;2.40;;;0.98;;
66603;SDS011;53460;39.612;8.822;2022-11-15T05:10:04;1.70;;;0.98;;
66603;SDS011;53460;39.612;8.822;2022-11-15T05:12:48;1.20;;;1.10;;
66603;SDS011;53460;39.612;8.822;2022-11-15T05:15:32;2.90;;;1.20;;
66603;SDS011;53460;39.612;8.822;2022-11-15T05:18:16;2.05;;;1.27;;
66603;SDS011;53460;39.612;8.822;2022-11-15T05:21:07;1.20;;;0.98;;
66603;SDS011;53460;39.612;8.822;2022-11-15T05:23:51;1.58;;;0.77;;
66603;SDS011;53460;39.612;8.822;2022-11-15T05:26:35;1.88;;;0.90;;
66603;SDS011;53460;39.612;8.822;2022-11-15T05:29:19;1.65;;;1.00;;
66603;SDS011;53460;39.612;8.822;2022-11-15T05:32:04;1.40;;;1.20;;
66603;SDS011;53460;39.612;8.822;2022-11-15T05:34:49;1.55;;;0.95;;
66603;SDS011;53460;39.612;8.822;2022-11-15T05:37:33;1.00;;;0.82;;
66603;SDS011;53460;39.612;8.822;2022-11-15T05:40:17;3.10;;;1.10;;
66603;SDS011;53460;39.612;8.822;2022-11-15T05:43:01;1.42;;;0.70;;
66603;SDS011;53460;39.612;8.822;2022-11-15T05:45:47;1.08;;;0.88;;
66603;SDS011;53460;39.612;8.822;2022-11-15T05:48:32;2.10;;;1.10;;
66603;SDS011;53460;39.612;8.822;2022-11-15T05:51:16;2.80;;;0.90;;
66603;SDS011;53460;39.612;8.822;2022-11-15T05:54:01;1.95;;;1.02;;
66603;SDS011;53460;39.612;8.822;2022-11-15T05:56:46;2.67;;;1.00;;
66603;SDS011;53460;39.612;8.822;2022-11-15T05:59:30;1.30;;;0.90;;
66603;SDS011;53460;39.612;8.822;2022-11-15T06:02:15;5.97;;;1.15;;
66603;SDS011;53460;39.612;8.822;2022-11-15T06:04:59;2.60;;;1.15;;
66603;SDS011;53460;39.612;8.822;2022-11-15T06:07:43;1.00;;;0.90;;
66603;SDS011;53460;39.612;8.822;2022-11-15T06:10:27;0.85;;;0.85;;
66603;SDS011;53460;39.612;8.822;2022-11-15T06:13:11;2.83;;;1.20;;
66603;SDS011;53460;39.612;8.822;2022-11-15T06:15:56;1.98;;;0.95;;
66603;SDS011;53460;39.612;8.822;2022-11-15T06:18:40;1.77;;;1.10;;
66603;SDS011;53460;39.612;8.822;2022-11-15T06:21:24;1.45;;;1.00;;
66603;SDS011;53460;39.612;8.822;2022-11-15T06:24:08;1.52;;;1.15;;
66603;SDS011;53460;39.612;8.822;2022-11-15T06:26:52;1.92;;;0.98;;
66603;SDS011;53460;39.612;8.822;2022-11-15T06:29:36;4.00;;;1.10;;
66603;SDS011;53460;39.612;8.822;2022-11-15T06:32:20;3.13;;;1.30;;
66603;SDS011;53460;39.612;8.822;2022-11-15T06:35:04;2.65;;;1.73;;
66603;SDS011;53460;39.612;8.822;2022-11-15T06:37:48;5.70;;;1.50;;
66603;SDS011;53460;39.612;8.822;2022-11-15T06:40:33;2.72;;;1.50;;
66603;SDS011;53460;39.612;8.822;2022-11-15T06:43:17;2.40;;;1.25;;
66603;SDS011;53460;39.612;8.822;2022-11-15T06:46:02;2.20;;;1.33;;
66603;SDS011;53460;39.612;8.822;2022-11-15T06:48:46;6.57;;;1.52;;
66603;SDS011;53460;39.612;8.822;2022-11-15T06:51:31;4.30;;;1.45;;
66603;SDS011;53460;39.612;8.822;2022-11-15T06:54:15;3.35;;;1.40;;
66603;SDS011;53460;39.612;8.822;2022-11-15T06:56:59;2.95;;;1.00;;
66603;SDS011;53460;39.612;8.822;2022-11-15T06:59:43;1.60;;;1.08;;
66603;SDS011;53460;39.612;8.822;2022-11-15T07:02:27;3.28;;;1.30;;
66603;SDS011;53460;39.612;8.822;2022-11-15T07:05:11;2.03;;;1.10;;
66603;SDS011;53460;39.612;8.822;2022-11-15T07:07:56;3.90;;;1.15;;
66603;SDS011;53460;39.612;8.822;2022-11-15T07:10:40;4.07;;;1.17;;
66603;SDS011;53460;39.612;8.822;2022-11-15T07:13:25;3.53;;;1.30;;
66603;SDS011;53460;39.612;8.822;2022-11-15T07:16:09;3.42;;;1.30;;
66603;SDS011;53460;39.612;8.822;2022-11-15T07:18:53;3.10;;;1.30;;
66603;SDS011;53460;39.612;8.822;2022-11-15T07:21:37;3.72;;;1.10;;
66603;SDS011;53460;39.612;8.822;2022-11-15T07:24:21;5.28;;;1.38;;
66603;SDS011;53460;39.612;8.822;2022-11-15T07:27:05;4.53;;;1.30;;
66603;SDS011;53460;39.612;8.822;2022-11-15T07:29:49;1.95;;;1.40;;
66603;SDS011;53460;39.612;8.822;2022-11-15T07:32:34;6.68;;;1.42;;
66603;SDS011;53460;39.612;8.822;2022-11-15T07:35:17;4.20;;;1.25;;
66603;SDS011;53460;39.612;8.822;2022-11-15T07:38:02;2.10;;;1.20;;
66603;SDS011;53460;39.612;8.822;2022-11-15T07:40:46;2.42;;;1.30;;
66603;SDS011;53460;39.612;8.822;2022-11-15T07:43:30;6.22;;;1.40;;
66603;SDS011;53460;39.612;8.822;2022-11-15T07:46:18;5.55;;;2.03;;
66603;SDS011;53460;39.612;8.822;2022-11-15T07:49:02;3.00;;;1.15;;
66603;SDS011;53460;39.612;8.822;2022-11-15T07:51:46;5.07;;;2.40;;
66603;SDS011;53460;39.612;8.822;2022-11-15T07:54:30;3.20;;;1.42;;
66603;SDS011;53460;39.612;8.822;2022-11-15T07:57:14;4.65;;;1.50;;
66603;SDS011;53460;39.612;8.822;2022-11-15T07:59:58;3.42;;;1.65;;
66603;SDS011;53460;39.612;8.822;2022-11-15T08:02:42;4.32;;;2.90;;
66603;SDS011;53460;39.612;8.822;2022-11-15T08:05:26;5.78;;;3.40;;
66603;SDS011;53460;39.612;8.822;2022-11-15T08:08:10;4.85;;;3.65;;
66603;SDS011;53460;39.612;8.822;2022-11-15T08:10:54;4.25;;;2.17;;
66603;SDS011;53460;39.612;8.822;2022-11-15T08:13:38;4.40;;;2.42;;
66603;SDS011;53460;39.612;8.822;2022-11-15T08:16:22;3.63;;;2.10;;
66603;SDS011;53460;39.612;8.822;2022-11-15T08:19:06;5.07;;;2.58;;
66603;SDS011;53460;39.612;8.822;2022-11-15T08:21:50;2.65;;;1.80;;
66603;SDS011;53460;39.612;8.822;2022-11-15T08:24:34;6.95;;;1.80;;
66603;SDS011;53460;39.612;8.822;2022-11-15T08:27:18;5.65;;;2.40;;
66603;SDS011;53460;39.612;8.822;2022-11-15T08:30:02;4.35;;;2.80;;
66603;SDS011;53460;39.612;8.822;2022-11-15T08:32:46;3.55;;;1.60;;
66603;SDS011;53460;39.612;8.822;2022-11-15T08:35:30;2.58;;;1.75;;
66603;SDS011;53460;39.612;8.822;2022-11-15T08:38:14;4.85;;;2.75;;
66603;SDS011;53460;39.612;8.822;2022-11-15T08:41:00;4.30;;;1.75;;
66603;SDS011;53460;39.612;8.822;2022-11-15T08:43:45;4.75;;;3.50;;
66603;SDS011;53460;39.612;8.822;2022-11-15T08:46:29;4.88;;;2.95;;
66603;SDS011;53460;39.612;8.822;2022-11-15T08:49:13;6.03;;;4.25;;
66603;SDS011;53460;39.612;8.822;2022-11-15T08:51:57;6.95;;;4.45;;
66603;SDS011;53460;39.612;8.822;2022-11-15T08:54:40;4.78;;;2.83;;
66603;SDS011;53460;39.612;8.822;2022-11-15T08:57:24;6.88;;;2.95;;
66603;SDS011;53460;39.612;8.822;2022-11-15T09:00:08;7.55;;;3.58;;
66603;SDS011;53460;39.612;8.822;2022-11-15T09:02:53;4.10;;;2.60;;
66603;SDS011;53460;39.612;8.822;2022-11-15T09:05:37;4.63;;;1.90;;
66603;SDS011;53460;39.612;8.822;2022-11-15T09:08:21;4.20;;;2.03;;
66603;SDS011;53460;39.612;8.822;2022-11-15T09:11:05;4.05;;;2.03;;
66603;SDS011;53460;39.612;8.822;2022-11-15T09:13:49;5.45;;;1.88;;
66603;SDS011;53460;39.612;8.822;2022-11-15T09:16:33;3.10;;;2.00;;
66603;SDS011;53460;39.612;8.822;2022-11-15T09:19:17;6.68;;;1.73;;
66603;SDS011;53460;39.612;8.822;2022-11-15T09:22:01;2.70;;;2.17;;
66603;SDS011;53460;39.612;8.822;2022-11-15T09:24:45;5.63;;;2.92;;
66603;SDS011;53460;39.612;8.822;2022-11-15T09:27:29;7.18;;;3.00;;
66603;SDS011;53460;39.612;8.822;2022-11-15T09:30:14;8.55;;;3.15;;
66603;SDS011;53460;39.612;8.822;2022-11-15T09:32:57;5.80;;;2.63;;
66603;SDS011;53460;39.612;8.822;2022-11-15T09:35:41;7.20;;;2.65;;
66603;SDS011;53460;39.612;8.822;2022-11-15T09:38:26;3.45;;;2.25;;
66603;SDS011;53460;39.612;8.822;2022-11-15T09:41:17;6.13;;;2.60;;
66603;SDS011;53460;39.612;8.822;2022-11-15T09:46:52;5.82;;;2.47;;
66603;SDS011;53460;39.612;8.822;2022-11-15T09:49:57;7.32;;;1.95;;
66603;SDS011;53460;39.612;8.822;2022-11-15T09:52:29;7.38;;;2.50;;
66603;SDS011;53460;39.612;8.822;2022-11-15T09:54:54;6.32;;;2.00;;
66603;SDS011;53460;39.612;8.822;2022-11-15T10:02:42;7.35;;;2.08;;
66603;SDS011;53460;39.612;8.822;2022-11-15T10:05:03;5.55;;;1.98;;
66603;SDS011;53460;39.612;8.822;2022-11-15T10:07:40;7.43;;;2.40;;
66603;SDS011;53460;39.612;8.822;2022-11-15T10:10:12;4.38;;;2.88;;
66603;SDS011;53460;39.612;8.822;2022-11-15T10:12:42;13.38;;;7.25;;
66603;SDS011;53460;39.612;8.822;2022-11-15T10:15:11;5.40;;;3.03;;
66603;SDS011;53460;39.612;8.822;2022-11-15T10:17:49;21.63;;;7.43;;
66603;SDS011;53460;39.612;8.822;2022-11-15T10:20:20;11.27;;;5.63;;
66603;SDS011;53460;39.612;8.822;2022-11-15T10:25:19;9.57;;;5.40;;
66603;SDS011;53460;39.612;8.822;2022-11-15T10:30:44;21.20;;;12.00;;
66603;SDS011;53460;39.612;8.822;2022-11-15T10:41:20;9.63;;;3.78;;
66603;SDS011;53460;39.612;8.822;2022-11-15T10:44:01;13.40;;;8.07;;
66603;SDS011;53460;39.612;8.822;2022-11-15T10:46:27;11.40;;;6.30;;
66603;SDS011;53460;39.612;8.822;2022-11-15T10:48:53;6.63;;;2.85;;
66603;SDS011;53460;39.612;8.822;2022-11-15T10:51:39;13.88;;;7.90;;
66603;SDS011;53460;39.612;8.822;2022-11-15T10:54:06;13.68;;;6.85;;
66603;SDS011;53460;39.612;8.822;2022-11-15T10:56:34;12.15;;;7.20;;
66603;SDS011;53460;39.612;8.822;2022-11-15T10:58:59;11.23;;;4.50;;
66603;SDS011;53460;39.612;8.822;2022-11-15T11:01:25;18.83;;;9.65;;
66603;SDS011;53460;39.612;8.822;2022-11-15T11:03:59;8.57;;;6.15;;
66603;SDS011;53460;39.612;8.822;2022-11-15T11:06:25;11.57;;;4.47;;
66603;SDS011;53460;39.612;8.822;2022-11-15T11:09:01;6.53;;;2.00;;
66603;SDS011;53460;39.612;8.822;2022-11-15T11:11:47;17.02;;;6.95;;
66603;SDS011;53460;39.612;8.822;2022-11-15T11:14:23;31.88;;;19.02;;
66603;SDS011;53460;39.612;8.822;2022-11-15T11:16:52;5.55;;;3.03;;
66603;SDS011;53460;39.612;8.822;2022-11-15T11:22:05;8.68;;;4.40;;
66603;SDS011;53460;39.612;8.822;2022-11-15T11:24:52;4.97;;;1.98;;
66603;SDS011;53460;39.612;8.822;2022-11-15T11:27:22;4.80;;;2.25;;
66603;SDS011;53460;39.612;8.822;2022-11-15T11:30:10;14.38;;;5.88;;
66603;SDS011;53460;39.612;8.822;2022-11-15T11:42:45;10.35;;;3.65;;
66603;SDS011;53460;39.612;8.822;2022-11-15T11:50:19;4.22;;;1.85;;
66603;SDS011;53460;39.612;8.822;2022-11-15T11:53:03;13.70;;;2.30;;
66603;SDS011;53460;39.612;8.822;2022-11-15T11:55:32;7.65;;;2.20;;
66603;SDS011;53460;39.612;8.822;2022-11-15T11:58:09;11.88;;;2.83;;
66603;SDS011;53460;39.612;8.822;2022-11-15T12:00:37;5.63;;;1.98;;
66603;SDS011;53460;39.612;8.822;2022-11-15T12:03:07;5.10;;;1.88;;
66603;SDS011;53460;39.612;8.822;2022-11-15T12:08:14;15.80;;;5.40;;
66603;SDS011;53460;39.612;8.822;2022-11-15T12:10:41;9.32;;;4.35;;
66603;SDS011;53460;39.612;8.822;2022-11-15T12:13:11;11.45;;;3.53;;
66603;SDS011;53460;39.612;8.822;2022-11-15T12:16:13;5.43;;;2.53;;
66603;SDS011;53460;39.612;8.822;2022-11-15T12:18:30;10.17;;;2.80;;
66603;SDS011;53460;39.612;8.822;2022-11-15T12:21:00;6.90;;;2.40;;
66603;SDS011;53460;39.612;8.822;2022-11-15T12:23:29;2.83;;;2.38;;
66603;SDS011;53460;39.612;8.822;2022-11-15T12:26:04;6.35;;;2.00;;
66603;SDS011;53460;39.612;8.822;2022-11-15T12:31:12;5.43;;;2.70;;
66603;SDS011;53460;39.612;8.822;2022-11-15T12:33:45;6.32;;;2.63;;
66603;SDS011;53460;39.612;8.822;2022-11-15T12:36:12;6.15;;;2.35;;
66603;SDS011;53460;39.612;8.822;2022-11-15T12:41:19;6.82;;;2.47;;
66603;SDS011;53460;39.612;8.822;2022-11-15T12:43:45;5.88;;;2.70;;
66603;SDS011;53460;39.612;8.822;2022-11-15T12:46:21;10.43;;;2.90;;
66603;SDS011;53460;39.612;8.822;2022-11-15T12:48:51;5.22;;;2.35;;
66603;SDS011;53460;39.612;8.822;2022-11-15T12:51:19;8.43;;;2.30;;
66603;SDS011;53460;39.612;8.822;2022-11-15T12:53:45;6.65;;;2.38;;
66603;SDS011;53460;39.612;8.822;2022-11-15T13:06:43;5.70;;;2.30;;
66603;SDS011;53460;39.612;8.822;2022-11-15T13:11:54;9.10;;;2.72;;
66603;SDS011;53460;39.612;8.822;2022-11-15T13:19:42;6.43;;;2.60;;
66603;SDS011;53460;39.612;8.822;2022-11-15T13:22:09;4.80;;;2.08;;
66603;SDS011;53460;39.612;8.822;2022-11-15T13:24:53;8.57;;;2.40;;
66603;SDS011;53460;39.612;8.822;2022-11-15T13:27:19;13.27;;;2.60;;
66603;SDS011;53460;39.612;8.822;2022-11-15T13:29:45;5.35;;;2.38;;
66603;SDS011;53460;39.612;8.822;2022-11-15T13:32:11;6.97;;;2.25;;
66603;SDS011;53460;39.612;8.822;2022-11-15T13:34:38;8.63;;;3.42;;
66603;SDS011;53460;39.612;8.822;2022-11-15T13:39:46;12.35;;;5.22;;
66603;SDS011;53460;39.612;8.822;2022-11-15T13:42:19;9.15;;;3.25;;
66603;SDS011;53460;39.612;8.822;2022-11-15T13:44:55;7.68;;;3.08;;
66603;SDS011;53460;39.612;8.822;2022-11-15T13:47:21;7.13;;;2.35;;
66603;SDS011;53460;39.612;8.822;2022-11-15T13:49:46;12.35;;;3.55;;
66603;SDS011;53460;39.612;8.822;2022-11-15T13:52:15;10.98;;;3.00;;
66603;SDS011;53460;39.612;8.822;2022-11-15T13:59:37;6.78;;;2.20;;
66603;SDS011;53460;39.612;8.822;2022-11-15T14:02:12;7.82;;;2.50;;
66603;SDS011;53460;39.612;8.822;2022-11-15T14:04:39;12.30;;;3.00;;
66603;SDS011;53460;39.612;8.822;2022-11-15T14:07:14;13.82;;;2.75;;
66603;SDS011;53460;39.612;8.822;2022-11-15T14:09:40;5.65;;;2.40;;
66603;SDS011;53460;39.612;8.822;2022-11-15T14:14:47;6.20;;;2.10;;
66603;SDS011;53460;39.612;8.822;2022-11-15T14:17:19;3.65;;;1.60;;
66603;SDS011;53460;39.612;8.822;2022-11-15T14:19:45;7.03;;;2.10;;
66603;SDS011;53460;39.612;8.822;2022-11-15T14:22:12;9.02;;;2.35;;
66603;SDS011;53460;39.612;8.822;2022-11-15T14:24:38;6.10;;;2.60;;
66603;SDS011;53460;39.612;8.822;2022-11-15T14:29:41;7.22;;;2.33;;
66603;SDS011;53460;39.612;8.822;2022-11-15T14:32:14;6.32;;;2.50;;
66603;SDS011;53460;39.612;8.822;2022-11-15T14:34:40;6.55;;;2.05;;
66603;SDS011;53460;39.612;8.822;2022-11-15T14:37:10;5.53;;;2.70;;
66603;SDS011;53460;39.612;8.822;2022-11-15T14:39:41;5.93;;;2.25;;
66603;SDS011;53460;39.612;8.822;2022-11-15T14:42:08;15.10;;;2.60;;
66603;SDS011;53460;39.612;8.822;2022-11-15T14:44:34;14.80;;;2.60;;
66603;SDS011;53460;39.612;8.822;2022-11-15T14:47:00;6.38;;;2.50;;
66603;SDS011;53460;39.612;8.822;2022-11-15T14:49:25;6.43;;;2.45;;
66603;SDS011;53460;39.612;8.822;2022-11-15T14:51:51;6.25;;;2.42;;
66603;SDS011;53460;39.612;8.822;2022-11-15T14:54:16;6.22;;;2.53;;
66603;SDS011;53460;39.612;8.822;2022-11-15T14:56:42;16.40;;;2.40;;
66603;SDS011;53460;39.612;8.822;2022-11-15T14:59:08;7.60;;;2.40;;
66603;SDS011;53460;39.612;8.822;2022-11-15T15:01:33;9.15;;;2.60;;
66603;SDS011;53460;39.612;8.822;2022-11-15T15:03:59;6.03;;;2.72;;
66603;SDS011;53460;39.612;8.822;2022-11-15T15:06:25;6.40;;;2.17;;
66603;SDS011;53460;39.612;8.822;2022-11-15T15:08:50;10.95;;;3.33;;
66603;SDS011;53460;39.612;8.822;2022-11-15T15:11:18;5.57;;;2.55;;
66603;SDS011;53460;39.612;8.822;2022-11-15T15:13:45;11.55;;;3.80;;
66603;SDS011;53460;39.612;8.822;2022-11-15T15:16:11;5.22;;;2.67;;
66603;SDS011;53460;39.612;8.822;2022-11-15T15:18:36;11.70;;;2.60;;
66603;SDS011;53460;39.612;8.822;2022-11-15T15:21:02;9.35;;;2.63;;
66603;SDS011;53460;39.612;8.822;2022-11-15T15:23:32;7.82;;;2.83;;
66603;SDS011;53460;39.612;8.822;2022-11-15T15:25:58;8.77;;;2.70;;
66603;SDS011;53460;39.612;8.822;2022-11-15T15:28:23;7.22;;;3.03;;
66603;SDS011;53460;39.612;8.822;2022-11-15T15:30:49;10.48;;;2.40;;
66603;SDS011;53460;39.612;8.822;2022-11-15T15:33:15;10.02;;;2.75;;
66603;SDS011;53460;39.612;8.822;2022-11-15T15:35:41;6.28;;;2.58;;
66603;SDS011;53460;39.612;8.822;2022-11-15T15:38:08;6.88;;;2.65;;
66603;SDS011;53460;39.612;8.822;2022-11-15T15:40:34;5.65;;;3.20;;
66603;SDS011;53460;39.612;8.822;2022-11-15T15:42:59;13.70;;;5.55;;
66603;SDS011;53460;39.612;8.822;2022-11-15T15:45:25;17.27;;;8.23;;
66603;SDS011;53460;39.612;8.822;2022-11-15T15:47:52;7.80;;;3.97;;
66603;SDS011;53460;39.612;8.822;2022-11-15T15:52:51;6.50;;;3.93;;
66603;SDS011;53460;39.612;8.822;2022-11-15T15:55:16;11.63;;;3.63;;
66603;SDS011;53460;39.612;8.822;2022-11-15T15:57:42;10.15;;;3.47;;
66603;SDS011;53460;39.612;8.822;2022-11-15T16:00:08;7.85;;;3.63;;
66603;SDS011;53460;39.612;8.822;2022-11-15T16:02:37;11.93;;;2.92;;
66603;SDS011;53460;39.612;8.822;2022-11-15T16:05:03;7.75;;;2.33;;
66603;SDS011;53460;39.612;8.822;2022-11-15T16:07:28;15.10;;;3.00;;
66603;SDS011;53460;39.612;8.822;2022-11-15T16:09:54;8.75;;;2.80;;
66603;SDS011;53460;39.612;8.822;2022-11-15T16:12:27;4.18;;;2.25;;
66603;SDS011;53460;39.612;8.822;2022-11-15T16:14:53;7.93;;;2.78;;
66603;SDS011;53460;39.612;8.822;2022-11-15T16:17:19;8.30;;;2.83;;
66603;SDS011;53460;39.612;8.822;2022-11-15T16:19:45;6.75;;;2.78;;
66603;SDS011;53460;39.612;8.822;2022-11-15T16:22:10;12.07;;;2.85;;
66603;SDS011;53460;39.612;8.822;2022-11-15T16:24:36;9.57;;;2.83;;
66603;SDS011;53460;39.612;8.822;2022-11-15T16:27:01;18.92;;;3.90;;
66603;SDS011;53460;39.612;8.822;2022-11-15T16:29:27;8.75;;;2.60;;
66603;SDS011;53460;39.612;8.822;2022-11-15T16:31:53;5.03;;;2.90;;
66603;SDS011;53460;39.612;8.822;2022-11-15T16:34:19;11.10;;;3.80;;
66603;SDS011;53460;39.612;8.822;2022-11-15T16:36:44;11.23;;;3.05;;
66603;SDS011;53460;39.612;8.822;2022-11-15T16:39:10;11.75;;;3.40;;
66603;SDS011;53460;39.612;8.822;2022-11-15T16:41:38;7.68;;;3.40;;
66603;SDS011;53460;39.612;8.822;2022-11-15T16:44:03;17.45;;;4.55;;
66603;SDS011;53460;39.612;8.822;2022-11-15T16:46:29;14.07;;;3.28;;
66603;SDS011;53460;39.612;8.822;2022-11-15T16:48:54;9.55;;;3.38;;
66603;SDS011;53460;39.612;8.822;2022-11-15T16:51:20;11.05;;;3.60;;
66603;SDS011;53460;39.612;8.822;2022-11-15T16:53:46;6.50;;;3.42;;
66603;SDS011;53460;39.612;8.822;2022-11-15T16:56:29;8.07;;;4.07;;
66603;SDS011;53460;39.612;8.822;2022-11-15T16:58:55;7.18;;;3.42;;
66603;SDS011;53460;39.612;8.822;2022-11-15T17:01:35;15.30;;;3.97;;
66603;SDS011;53460;39.612;8.822;2022-11-15T17:04:01;9.15;;;3.15;;
66603;SDS011;53460;39.612;8.822;2022-11-15T17:06:41;8.70;;;3.60;;
66603;SDS011;53460;39.612;8.822;2022-11-15T17:09:10;11.07;;;4.38;;
66603;SDS011;53460;39.612;8.822;2022-11-15T17:11:36;6.68;;;3.15;;
66603;SDS011;53460;39.612;8.822;2022-11-15T17:14:02;17.85;;;4.32;;
66603;SDS011;53460;39.612;8.822;2022-11-15T17:16:27;13.85;;;5.85;;
66603;SDS011;53460;39.612;8.822;2022-11-15T17:18:53;11.80;;;5.10;;
66603;SDS011;53460;39.612;8.822;2022-11-15T17:21:19;9.45;;;3.80;;
66603;SDS011;53460;39.612;8.822;2022-11-15T17:23:45;14.70;;;5.57;;
66603;SDS011;53460;39.612;8.822;2022-11-15T17:26:11;21.25;;;7.32;;
66603;SDS011;53460;39.612;8.822;2022-11-15T17:28:37;22.08;;;8.50;;
66603;SDS011;53460;39.612;8.822;2022-11-15T17:31:07;11.48;;;7.07;;
66603;SDS011;53460;39.612;8.822;2022-11-15T17:33:33;10.30;;;6.43;;
66603;SDS011;53460;39.612;8.822;2022-11-15T17:35:59;15.13;;;7.32;;
66603;SDS011;53460;39.612;8.822;2022-11-15T17:38:25;12.75;;;6.57;;
66603;SDS011;53460;39.612;8.822;2022-11-15T17:43:26;17.08;;;6.25;;
66603;SDS011;53460;39.612;8.822;2022-11-15T17:45:51;10.52;;;5.32;;
66603;SDS011;53460;39.612;8.822;2022-11-15T17:48:17;13.13;;;6.50;;
66603;SDS011;53460;39.612;8.822;2022-11-15T17:50:42;16.50;;;7.75;;